sensor_id;sensor_type;location;lat;lon;timestamp;P1;durP1;ratioP1;P2;durP2;ratioP2
18899;SDS011;9582;52.018;6.306;2023-04-30T00:02:22;10.63;;;8.40;;
18899;SDS011;9582;52.018;6.306;2023-04-30T00:04:48;10.97;;;8.50;;
18899;SDS011;9582;52.018;6.306;2023-04-30T00:07:16;10.60;;;8.43;;
18899;SDS011;9582;52.018;6.306;2023-04-30T00:09:42;10.27;;;7.93;;
18899;SDS011;9582;52.018;6.306;2023-04-30T00:12:09;9.80;;;7.83;;
18899;SDS011;9582;52.018;6.306;2023-04-30T00:14:35;11.33;;;7.87;;
18899;SDS011;9582;52.018;6.306;2023-04-30T00:17:02;10.67;;;8.57;;
18899;SDS011;9582;52.018;6.306;2023-04-30T00:19:28;10.27;;;8.00;;
18899;SDS011;9582;52.018;6.306;2023-04-30T00:21:55;9.47;;;7.63;;
18899;SDS011;9582;52.018;6.306;2023-04-30T00:24:23;14.17;;;9.07;;
18899;SDS011;9582;52.018;6.306;2023-04-30T00:26:49;15.47;;;9.53;;
18899;SDS011;9582;52.018;6.306;2023-04-30T00:29:15;12.30;;;8.17;;
18899;SDS011;9582;52.018;6.306;2023-04-30T00:31:42;11.70;;;9.20;;
18899;SDS011;9582;52.018;6.306;2023-04-30T00:34:08;12.97;;;9.10;;
18899;SDS011;9582;52.018;6.306;2023-04-30T00:36:35;11.50;;;8.20;;
18899;SDS011;9582;52.018;6.306;2023-04-30T00:39:02;13.03;;;9.10;;
18899;SDS011;9582;52.018;6.306;2023-04-30T00:41:30;13.23;;;8.87;;
18899;SDS011;9582;52.018;6.306;2023-04-30T00:43:57;17.60;;;10.37;;
18899;SDS011;9582;52.018;6.306;2023-04-30T00:46:23;11.93;;;9.10;;
18899;SDS011;9582;52.018;6.306;2023-04-30T00:48:50;10.13;;;8.47;;
18899;SDS011;9582;52.018;6.306;2023-04-30T00:51:16;10.63;;;7.90;;
18899;SDS011;9582;52.018;6.306;2023-04-30T00:53:43;16.17;;;8.37;;
18899;SDS011;9582;52.018;6.306;2023-04-30T00:56:10;9.30;;;6.57;;
18899;SDS011;9582;52.018;6.306;2023-04-30T00:58:41;8.87;;;5.80;;
18899;SDS011;9582;52.018;6.306;2023-04-30T01:01:08;9.67;;;7.10;;
18899;SDS011;9582;52.018;6.306;2023-04-30T01:03:35;9.83;;;6.87;;
18899;SDS011;9582;52.018;6.306;2023-04-30T01:06:02;10.83;;;7.10;;
18899;SDS011;9582;52.018;6.306;2023-04-30T01:08:28;9.40;;;6.83;;
18899;SDS011;9582;52.018;6.306;2023-04-30T01:11:00;9.20;;;7.50;;
18899;SDS011;9582;52.018;6.306;2023-04-30T01:13:48;11.40;;;7.43;;
18899;SDS011;9582;52.018;6.306;2023-04-30T01:16:21;9.77;;;7.97;;
18899;SDS011;9582;52.018;6.306;2023-04-30T01:18:51;10.73;;;8.27;;
18899;SDS011;9582;52.018;6.306;2023-04-30T01:21:21;10.10;;;7.87;;
18899;SDS011;9582;52.018;6.306;2023-04-30T01:23:54;9.13;;;7.67;;
18899;SDS011;9582;52.018;6.306;2023-04-30T01:26:42;10.00;;;8.40;;
18899;SDS011;9582;52.018;6.306;2023-04-30T01:29:20;10.90;;;8.60;;
18899;SDS011;9582;52.018;6.306;2023-04-30T01:31:47;9.90;;;8.13;;
18899;SDS011;9582;52.018;6.306;2023-04-30T01:34:13;9.77;;;7.50;;
18899;SDS011;9582;52.018;6.306;2023-04-30T01:36:49;8.17;;;7.07;;
18899;SDS011;9582;52.018;6.306;2023-04-30T01:39:30;11.17;;;6.83;;
18899;SDS011;9582;52.018;6.306;2023-04-30T01:42:11;8.23;;;6.43;;
18899;SDS011;9582;52.018;6.306;2023-04-30T01:44:52;8.40;;;6.70;;
18899;SDS011;9582;52.018;6.306;2023-04-30T01:47:26;167.73;;;14.73;;
18899;SDS011;9582;52.018;6.306;2023-04-30T01:50:02;7.43;;;6.30;;
18899;SDS011;9582;52.018;6.306;2023-04-30T01:52:40;10.03;;;7.37;;
18899;SDS011;9582;52.018;6.306;2023-04-30T01:55:12;8.87;;;7.13;;
18899;SDS011;9582;52.018;6.306;2023-04-30T01:57:43;8.67;;;6.77;;
18899;SDS011;9582;52.018;6.306;2023-04-30T02:00:20;7.73;;;6.63;;
18899;SDS011;9582;52.018;6.306;2023-04-30T02:02:46;6.93;;;6.07;;
18899;SDS011;9582;52.018;6.306;2023-04-30T02:05:14;8.97;;;6.80;;
18899;SDS011;9582;52.018;6.306;2023-04-30T02:07:41;11.10;;;8.07;;
18899;SDS011;9582;52.018;6.306;2023-04-30T02:10:09;9.77;;;7.23;;
18899;SDS011;9582;52.018;6.306;2023-04-30T02:12:37;5.97;;;5.33;;
18899;SDS011;9582;52.018;6.306;2023-04-30T02:15:04;6.70;;;5.80;;
18899;SDS011;9582;52.018;6.306;2023-04-30T02:17:32;6.50;;;5.17;;
18899;SDS011;9582;52.018;6.306;2023-04-30T02:19:59;11.67;;;6.17;;
18899;SDS011;9582;52.018;6.306;2023-04-30T02:22:26;119.50;;;11.33;;
18899;SDS011;9582;52.018;6.306;2023-04-30T02:24:52;96.23;;;11.03;;
18899;SDS011;9582;52.018;6.306;2023-04-30T02:27:20;7.63;;;5.40;;
18899;SDS011;9582;52.018;6.306;2023-04-30T02:29:48;7.90;;;5.30;;
18899;SDS011;9582;52.018;6.306;2023-04-30T02:32:15;5.73;;;4.87;;
18899;SDS011;9582;52.018;6.306;2023-04-30T02:34:43;7.17;;;4.70;;
18899;SDS011;9582;52.018;6.306;2023-04-30T02:37:09;8.63;;;5.33;;
18899;SDS011;9582;52.018;6.306;2023-04-30T02:39:36;80.97;;;10.80;;
18899;SDS011;9582;52.018;6.306;2023-04-30T02:42:03;15.70;;;8.10;;
18899;SDS011;9582;52.018;6.306;2023-04-30T02:44:30;12.17;;;7.83;;
18899;SDS011;9582;52.018;6.306;2023-04-30T02:46:57;11.07;;;6.37;;
18899;SDS011;9582;52.018;6.306;2023-04-30T02:49:23;11.57;;;7.00;;
18899;SDS011;9582;52.018;6.306;2023-04-30T02:51:52;9.33;;;6.47;;
18899;SDS011;9582;52.018;6.306;2023-04-30T02:54:18;9.03;;;6.40;;
18899;SDS011;9582;52.018;6.306;2023-04-30T02:56:45;14.47;;;7.80;;
18899;SDS011;9582;52.018;6.306;2023-04-30T02:59:11;129.33;;;15.07;;
18899;SDS011;9582;52.018;6.306;2023-04-30T03:01:38;146.83;;;15.00;;
18899;SDS011;9582;52.018;6.306;2023-04-30T03:04:04;117.70;;;13.17;;
18899;SDS011;9582;52.018;6.306;2023-04-30T03:06:31;115.90;;;10.67;;
18899;SDS011;9582;52.018;6.306;2023-04-30T03:08:59;154.37;;;13.03;;
18899;SDS011;9582;52.018;6.306;2023-04-30T03:11:26;197.27;;;14.73;;
18899;SDS011;9582;52.018;6.306;2023-04-30T03:13:52;30.60;;;11.40;;
18899;SDS011;9582;52.018;6.306;2023-04-30T03:16:19;82.90;;;11.60;;
18899;SDS011;9582;52.018;6.306;2023-04-30T03:18:47;132.60;;;14.83;;
18899;SDS011;9582;52.018;6.306;2023-04-30T03:21:15;13.47;;;8.47;;
18899;SDS011;9582;52.018;6.306;2023-04-30T03:23:41;22.00;;;9.23;;
18899;SDS011;9582;52.018;6.306;2023-04-30T03:26:09;15.47;;;8.00;;
18899;SDS011;9582;52.018;6.306;2023-04-30T03:28:35;134.77;;;14.97;;
18899;SDS011;9582;52.018;6.306;2023-04-30T03:31:02;122.57;;;13.07;;
18899;SDS011;9582;52.018;6.306;2023-04-30T03:33:30;94.23;;;10.43;;
18899;SDS011;9582;52.018;6.306;2023-04-30T03:35:57;11.47;;;6.80;;
18899;SDS011;9582;52.018;6.306;2023-04-30T03:38:23;12.43;;;7.30;;
18899;SDS011;9582;52.018;6.306;2023-04-30T03:40:50;12.20;;;8.67;;
18899;SDS011;9582;52.018;6.306;2023-04-30T03:43:18;13.17;;;8.50;;
18899;SDS011;9582;52.018;6.306;2023-04-30T03:45:44;12.50;;;7.33;;
18899;SDS011;9582;52.018;6.306;2023-04-30T03:48:11;11.20;;;7.07;;
18899;SDS011;9582;52.018;6.306;2023-04-30T03:50:38;13.23;;;7.20;;
18899;SDS011;9582;52.018;6.306;2023-04-30T03:53:04;18.03;;;8.00;;
18899;SDS011;9582;52.018;6.306;2023-04-30T03:55:31;10.53;;;6.77;;
18899;SDS011;9582;52.018;6.306;2023-04-30T03:57:58;21.40;;;6.97;;
18899;SDS011;9582;52.018;6.306;2023-04-30T04:00:26;17.80;;;9.00;;
18899;SDS011;9582;52.018;6.306;2023-04-30T04:02:52;50.67;;;13.10;;
18899;SDS011;9582;52.018;6.306;2023-04-30T04:05:19;23.57;;;10.57;;
18899;SDS011;9582;52.018;6.306;2023-04-30T04:07:45;34.73;;;12.43;;
18899;SDS011;9582;52.018;6.306;2023-04-30T04:10:12;22.67;;;10.80;;
18899;SDS011;9582;52.018;6.306;2023-04-30T04:12:39;20.20;;;10.37;;
18899;SDS011;9582;52.018;6.306;2023-04-30T04:15:06;11.23;;;8.60;;
18899;SDS011;9582;52.018;6.306;2023-04-30T04:17:35;13.97;;;9.27;;
18899;SDS011;9582;52.018;6.306;2023-04-30T04:20:01;19.77;;;9.83;;
18899;SDS011;9582;52.018;6.306;2023-04-30T04:22:30;19.10;;;10.93;;
18899;SDS011;9582;52.018;6.306;2023-04-30T04:24:56;12.67;;;8.80;;
18899;SDS011;9582;52.018;6.306;2023-04-30T04:27:23;43.43;;;12.00;;
18899;SDS011;9582;52.018;6.306;2023-04-30T04:29:50;20.73;;;9.50;;
18899;SDS011;9582;52.018;6.306;2023-04-30T04:32:17;10.40;;;8.43;;
18899;SDS011;9582;52.018;6.306;2023-04-30T04:34:44;14.67;;;9.53;;
18899;SDS011;9582;52.018;6.306;2023-04-30T04:37:11;13.07;;;9.73;;
18899;SDS011;9582;52.018;6.306;2023-04-30T04:39:38;15.33;;;9.10;;
18899;SDS011;9582;52.018;6.306;2023-04-30T04:42:05;13.70;;;10.07;;
18899;SDS011;9582;52.018;6.306;2023-04-30T04:44:33;15.03;;;9.57;;
18899;SDS011;9582;52.018;6.306;2023-04-30T04:47:00;16.73;;;10.40;;
18899;SDS011;9582;52.018;6.306;2023-04-30T04:49:29;18.90;;;12.13;;
18899;SDS011;9582;52.018;6.306;2023-04-30T04:51:57;17.20;;;10.80;;
18899;SDS011;9582;52.018;6.306;2023-04-30T04:54:23;17.30;;;12.07;;
18899;SDS011;9582;52.018;6.306;2023-04-30T04:56:50;16.43;;;11.93;;
18899;SDS011;9582;52.018;6.306;2023-04-30T04:59:17;18.20;;;12.20;;
18899;SDS011;9582;52.018;6.306;2023-04-30T05:01:44;21.33;;;13.20;;
18899;SDS011;9582;52.018;6.306;2023-04-30T05:04:11;21.47;;;13.53;;
18899;SDS011;9582;52.018;6.306;2023-04-30T05:06:38;21.53;;;13.03;;
18899;SDS011;9582;52.018;6.306;2023-04-30T05:09:06;18.40;;;12.73;;
18899;SDS011;9582;52.018;6.306;2023-04-30T05:11:33;20.13;;;12.30;;
18899;SDS011;9582;52.018;6.306;2023-04-30T05:14:00;21.30;;;13.60;;
18899;SDS011;9582;52.018;6.306;2023-04-30T05:16:27;23.00;;;14.73;;
18899;SDS011;9582;52.018;6.306;2023-04-30T05:18:54;23.50;;;15.10;;
18899;SDS011;9582;52.018;6.306;2023-04-30T05:21:20;27.07;;;15.10;;
18899;SDS011;9582;52.018;6.306;2023-04-30T05:23:47;22.53;;;15.20;;
18899;SDS011;9582;52.018;6.306;2023-04-30T05:26:15;23.53;;;15.53;;
18899;SDS011;9582;52.018;6.306;2023-04-30T05:28:41;25.73;;;16.17;;
18899;SDS011;9582;52.018;6.306;2023-04-30T05:31:08;21.30;;;15.13;;
18899;SDS011;9582;52.018;6.306;2023-04-30T05:33:34;25.83;;;16.27;;
18899;SDS011;9582;52.018;6.306;2023-04-30T05:36:01;21.03;;;13.60;;
18899;SDS011;9582;52.018;6.306;2023-04-30T05:38:28;19.70;;;12.70;;
18899;SDS011;9582;52.018;6.306;2023-04-30T05:40:55;16.03;;;12.67;;
18899;SDS011;9582;52.018;6.306;2023-04-30T05:43:22;16.87;;;11.97;;
18899;SDS011;9582;52.018;6.306;2023-04-30T05:45:49;16.70;;;11.57;;
18899;SDS011;9582;52.018;6.306;2023-04-30T05:48:15;14.77;;;11.10;;
18899;SDS011;9582;52.018;6.306;2023-04-30T05:50:42;12.90;;;9.50;;
18899;SDS011;9582;52.018;6.306;2023-04-30T05:53:08;13.90;;;10.37;;
18899;SDS011;9582;52.018;6.306;2023-04-30T05:55:35;14.57;;;10.13;;
18899;SDS011;9582;52.018;6.306;2023-04-30T05:58:01;12.57;;;10.27;;
18899;SDS011;9582;52.018;6.306;2023-04-30T06:00:29;13.53;;;9.73;;
18899;SDS011;9582;52.018;6.306;2023-04-30T06:02:56;12.43;;;9.03;;
18899;SDS011;9582;52.018;6.306;2023-04-30T06:05:22;12.37;;;9.13;;
18899;SDS011;9582;52.018;6.306;2023-04-30T06:07:49;15.20;;;9.20;;
18899;SDS011;9582;52.018;6.306;2023-04-30T06:10:15;11.43;;;9.17;;
18899;SDS011;9582;52.018;6.306;2023-04-30T06:12:42;11.50;;;8.63;;
18899;SDS011;9582;52.018;6.306;2023-04-30T06:15:08;13.90;;;9.07;;
18899;SDS011;9582;52.018;6.306;2023-04-30T06:17:37;9.87;;;8.80;;
18899;SDS011;9582;52.018;6.306;2023-04-30T06:20:03;11.83;;;8.77;;
18899;SDS011;9582;52.018;6.306;2023-04-30T06:22:31;14.83;;;9.37;;
18899;SDS011;9582;52.018;6.306;2023-04-30T06:24:57;11.87;;;8.63;;
18899;SDS011;9582;52.018;6.306;2023-04-30T06:27:24;10.40;;;7.83;;
18899;SDS011;9582;52.018;6.306;2023-04-30T06:29:52;13.57;;;9.17;;
18899;SDS011;9582;52.018;6.306;2023-04-30T06:32:18;12.17;;;9.17;;
18899;SDS011;9582;52.018;6.306;2023-04-30T06:34:46;11.33;;;8.37;;
18899;SDS011;9582;52.018;6.306;2023-04-30T06:37:12;12.70;;;9.20;;
18899;SDS011;9582;52.018;6.306;2023-04-30T06:39:39;9.73;;;8.27;;
18899;SDS011;9582;52.018;6.306;2023-04-30T06:42:05;10.83;;;8.30;;
18899;SDS011;9582;52.018;6.306;2023-04-30T06:44:32;11.17;;;7.67;;
18899;SDS011;9582;52.018;6.306;2023-04-30T06:46:58;11.87;;;7.70;;
18899;SDS011;9582;52.018;6.306;2023-04-30T06:49:25;10.27;;;7.40;;
18899;SDS011;9582;52.018;6.306;2023-04-30T06:51:52;8.80;;;7.47;;
18899;SDS011;9582;52.018;6.306;2023-04-30T06:54:20;11.07;;;7.30;;
18899;SDS011;9582;52.018;6.306;2023-04-30T06:56:47;9.50;;;7.10;;
18899;SDS011;9582;52.018;6.306;2023-04-30T06:59:14;8.68;;;7.05;;
18899;SDS011;9582;52.018;6.306;2023-04-30T07:01:40;10.00;;;7.03;;
18899;SDS011;9582;52.018;6.306;2023-04-30T07:04:07;8.73;;;6.75;;
18899;SDS011;9582;52.018;6.306;2023-04-30T07:06:33;7.47;;;6.68;;
18899;SDS011;9582;52.018;6.306;2023-04-30T07:09:01;9.43;;;7.53;;
18899;SDS011;9582;52.018;6.306;2023-04-30T07:11:28;10.13;;;6.97;;
18899;SDS011;9582;52.018;6.306;2023-04-30T07:13:55;8.68;;;6.55;;
18899;SDS011;9582;52.018;6.306;2023-04-30T07:16:23;10.35;;;7.35;;
18899;SDS011;9582;52.018;6.306;2023-04-30T07:18:51;8.38;;;6.45;;
18899;SDS011;9582;52.018;6.306;2023-04-30T07:21:18;9.23;;;6.90;;
18899;SDS011;9582;52.018;6.306;2023-04-30T07:23:45;9.05;;;6.45;;
18899;SDS011;9582;52.018;6.306;2023-04-30T07:26:14;7.85;;;7.10;;
18899;SDS011;9582;52.018;6.306;2023-04-30T07:28:40;8.63;;;6.93;;
18899;SDS011;9582;52.018;6.306;2023-04-30T07:31:07;9.80;;;7.45;;
18899;SDS011;9582;52.018;6.306;2023-04-30T07:33:33;8.23;;;6.88;;
18899;SDS011;9582;52.018;6.306;2023-04-30T07:36:00;9.30;;;7.25;;
18899;SDS011;9582;52.018;6.306;2023-04-30T07:38:26;9.13;;;7.35;;
18899;SDS011;9582;52.018;6.306;2023-04-30T07:40:53;7.63;;;6.82;;
18899;SDS011;9582;52.018;6.306;2023-04-30T07:43:21;9.18;;;7.88;;
18899;SDS011;9582;52.018;6.306;2023-04-30T07:45:48;10.18;;;7.88;;
18899;SDS011;9582;52.018;6.306;2023-04-30T07:48:15;8.73;;;7.13;;
18899;SDS011;9582;52.018;6.306;2023-04-30T07:50:42;8.05;;;7.25;;
18899;SDS011;9582;52.018;6.306;2023-04-30T07:53:08;9.13;;;7.97;;
18899;SDS011;9582;52.018;6.306;2023-04-30T07:55:35;10.32;;;8.07;;
18899;SDS011;9582;52.018;6.306;2023-04-30T07:58:01;12.00;;;8.00;;
18899;SDS011;9582;52.018;6.306;2023-04-30T08:00:29;9.75;;;7.70;;
18899;SDS011;9582;52.018;6.306;2023-04-30T08:02:56;9.40;;;7.50;;
18899;SDS011;9582;52.018;6.306;2023-04-30T08:05:23;8.35;;;7.45;;
18899;SDS011;9582;52.018;6.306;2023-04-30T08:07:49;10.23;;;7.57;;
18899;SDS011;9582;52.018;6.306;2023-04-30T08:10:16;8.95;;;7.82;;
18899;SDS011;9582;52.018;6.306;2023-04-30T08:12:42;10.90;;;8.05;;
18899;SDS011;9582;52.018;6.306;2023-04-30T08:15:09;9.75;;;6.93;;
18899;SDS011;9582;52.018;6.306;2023-04-30T08:17:37;9.02;;;7.68;;
18899;SDS011;9582;52.018;6.306;2023-04-30T08:20:04;7.63;;;6.82;;
18899;SDS011;9582;52.018;6.306;2023-04-30T08:22:32;9.68;;;7.05;;
18899;SDS011;9582;52.018;6.306;2023-04-30T08:24:59;9.18;;;6.85;;
18899;SDS011;9582;52.018;6.306;2023-04-30T08:27:26;10.98;;;7.55;;
18899;SDS011;9582;52.018;6.306;2023-04-30T08:29:52;9.13;;;6.68;;
18899;SDS011;9582;52.018;6.306;2023-04-30T08:32:19;8.02;;;7.20;;
18899;SDS011;9582;52.018;6.306;2023-04-30T08:34:47;7.40;;;6.55;;
18899;SDS011;9582;52.018;6.306;2023-04-30T08:37:13;7.78;;;5.90;;
18899;SDS011;9582;52.018;6.306;2023-04-30T08:39:40;8.10;;;6.85;;
18899;SDS011;9582;52.018;6.306;2023-04-30T08:42:07;6.93;;;5.82;;
18899;SDS011;9582;52.018;6.306;2023-04-30T08:44:35;8.23;;;5.63;;
18899;SDS011;9582;52.018;6.306;2023-04-30T08:47:03;7.55;;;5.57;;
18899;SDS011;9582;52.018;6.306;2023-04-30T08:49:32;6.63;;;5.38;;
18899;SDS011;9582;52.018;6.306;2023-04-30T08:52:01;4.93;;;4.43;;
18899;SDS011;9582;52.018;6.306;2023-04-30T08:54:29;7.15;;;6.32;;
18899;SDS011;9582;52.018;6.306;2023-04-30T08:56:56;7.85;;;5.75;;
18899;SDS011;9582;52.018;6.306;2023-04-30T08:59:23;8.32;;;5.50;;
18899;SDS011;9582;52.018;6.306;2023-04-30T09:01:49;8.95;;;5.18;;
18899;SDS011;9582;52.018;6.306;2023-04-30T09:04:16;6.72;;;5.20;;
18899;SDS011;9582;52.018;6.306;2023-04-30T09:06:42;6.30;;;5.53;;
18899;SDS011;9582;52.018;6.306;2023-04-30T09:09:11;7.90;;;5.47;;
18899;SDS011;9582;52.018;6.306;2023-04-30T09:11:39;9.32;;;5.35;;
18899;SDS011;9582;52.018;6.306;2023-04-30T09:14:06;6.93;;;5.28;;
18899;SDS011;9582;52.018;6.306;2023-04-30T09:16:43;8.23;;;5.07;;
18899;SDS011;9582;52.018;6.306;2023-04-30T09:19:22;5.95;;;4.68;;
18899;SDS011;9582;52.018;6.306;2023-04-30T09:21:49;7.45;;;4.75;;
18899;SDS011;9582;52.018;6.306;2023-04-30T09:24:17;7.05;;;4.95;;
18899;SDS011;9582;52.018;6.306;2023-04-30T09:26:44;5.88;;;5.05;;
18899;SDS011;9582;52.018;6.306;2023-04-30T09:29:12;6.20;;;5.15;;
18899;SDS011;9582;52.018;6.306;2023-04-30T09:31:40;5.95;;;4.93;;
18899;SDS011;9582;52.018;6.306;2023-04-30T09:34:08;7.38;;;5.68;;
18899;SDS011;9582;52.018;6.306;2023-04-30T09:36:34;6.60;;;4.20;;
18899;SDS011;9582;52.018;6.306;2023-04-30T09:39:05;6.72;;;4.68;;
18899;SDS011;9582;52.018;6.306;2023-04-30T09:41:34;4.75;;;4.25;;
18899;SDS011;9582;52.018;6.306;2023-04-30T09:44:00;4.32;;;3.92;;
18899;SDS011;9582;52.018;6.306;2023-04-30T09:46:29;5.75;;;4.70;;
18899;SDS011;9582;52.018;6.306;2023-04-30T09:48:56;4.97;;;4.35;;
18899;SDS011;9582;52.018;6.306;2023-04-30T09:51:26;6.50;;;4.65;;
18899;SDS011;9582;52.018;6.306;2023-04-30T09:53:53;5.32;;;4.30;;
18899;SDS011;9582;52.018;6.306;2023-04-30T09:56:21;6.57;;;5.00;;
18899;SDS011;9582;52.018;6.306;2023-04-30T09:58:50;7.50;;;4.40;;
18899;SDS011;9582;52.018;6.306;2023-04-30T10:01:18;7.05;;;4.50;;
18899;SDS011;9582;52.018;6.306;2023-04-30T10:03:46;5.70;;;4.40;;
18899;SDS011;9582;52.018;6.306;2023-04-30T10:06:13;8.00;;;4.65;;
18899;SDS011;9582;52.018;6.306;2023-04-30T10:08:42;5.60;;;4.60;;
18899;SDS011;9582;52.018;6.306;2023-04-30T10:11:12;9.75;;;5.05;;
18899;SDS011;9582;52.018;6.306;2023-04-30T10:13:44;5.30;;;4.40;;
18899;SDS011;9582;52.018;6.306;2023-04-30T10:16:20;5.47;;;4.18;;
18899;SDS011;9582;52.018;6.306;2023-04-30T10:18:52;4.32;;;3.92;;
18899;SDS011;9582;52.018;6.306;2023-04-30T10:21:21;5.68;;;4.38;;
18899;SDS011;9582;52.018;6.306;2023-04-30T10:23:51;7.25;;;4.65;;
18899;SDS011;9582;52.018;6.306;2023-04-30T10:26:18;4.78;;;3.85;;
18899;SDS011;9582;52.018;6.306;2023-04-30T10:28:45;5.13;;;3.60;;
18899;SDS011;9582;52.018;6.306;2023-04-30T10:31:15;4.75;;;4.03;;
18899;SDS011;9582;52.018;6.306;2023-04-30T10:33:45;5.35;;;4.30;;
18899;SDS011;9582;52.018;6.306;2023-04-30T10:36:22;5.85;;;3.72;;
18899;SDS011;9582;52.018;6.306;2023-04-30T10:38:55;7.07;;;4.70;;
18899;SDS011;9582;52.018;6.306;2023-04-30T10:41:23;6.47;;;4.38;;
18899;SDS011;9582;52.018;6.306;2023-04-30T10:43:53;9.73;;;5.57;;
18899;SDS011;9582;52.018;6.306;2023-04-30T10:46:22;6.55;;;3.88;;
18899;SDS011;9582;52.018;6.306;2023-04-30T10:48:52;6.03;;;3.53;;
18899;SDS011;9582;52.018;6.306;2023-04-30T10:51:20;8.15;;;4.35;;
18899;SDS011;9582;52.018;6.306;2023-04-30T10:53:48;4.68;;;3.80;;
18899;SDS011;9582;52.018;6.306;2023-04-30T10:56:27;3.78;;;3.40;;
18899;SDS011;9582;52.018;6.306;2023-04-30T10:58:57;6.85;;;4.00;;
18899;SDS011;9582;52.018;6.306;2023-04-30T11:01:25;7.07;;;3.60;;
18899;SDS011;9582;52.018;6.306;2023-04-30T11:04:06;5.50;;;3.47;;
18899;SDS011;9582;52.018;6.306;2023-04-30T11:06:53;4.97;;;3.47;;
18899;SDS011;9582;52.018;6.306;2023-04-30T11:09:36;4.32;;;3.65;;
18899;SDS011;9582;52.018;6.306;2023-04-30T11:12:09;5.28;;;3.40;;
18899;SDS011;9582;52.018;6.306;2023-04-30T11:14:38;4.35;;;3.30;;
18899;SDS011;9582;52.018;6.306;2023-04-30T11:17:06;4.60;;;3.50;;
18899;SDS011;9582;52.018;6.306;2023-04-30T11:19:37;4.97;;;3.50;;
18899;SDS011;9582;52.018;6.306;2023-04-30T11:22:14;4.75;;;3.20;;
18899;SDS011;9582;52.018;6.306;2023-04-30T11:27:29;3.78;;;3.33;;
18899;SDS011;9582;52.018;6.306;2023-04-30T11:29:57;4.95;;;3.30;;
18899;SDS011;9582;52.018;6.306;2023-04-30T11:32:24;4.97;;;3.50;;
18899;SDS011;9582;52.018;6.306;2023-04-30T11:34:58;4.47;;;3.33;;
18899;SDS011;9582;52.018;6.306;2023-04-30T11:37:28;5.18;;;3.30;;
18899;SDS011;9582;52.018;6.306;2023-04-30T11:39:58;4.97;;;3.60;;
18899;SDS011;9582;52.018;6.306;2023-04-30T11:42:26;3.72;;;3.35;;
18899;SDS011;9582;52.018;6.306;2023-04-30T11:44:54;4.40;;;3.47;;
18899;SDS011;9582;52.018;6.306;2023-04-30T11:47:36;5.43;;;3.42;;
18899;SDS011;9582;52.018;6.306;2023-04-30T11:50:05;4.45;;;3.28;;
18899;SDS011;9582;52.018;6.306;2023-04-30T11:52:32;4.03;;;2.88;;
18899;SDS011;9582;52.018;6.306;2023-04-30T11:54:59;4.00;;;2.63;;
18899;SDS011;9582;52.018;6.306;2023-04-30T11:57:25;4.45;;;2.65;;
18899;SDS011;9582;52.018;6.306;2023-04-30T11:59:52;3.30;;;2.70;;
18899;SDS011;9582;52.018;6.306;2023-04-30T12:02:18;3.42;;;2.72;;
18899;SDS011;9582;52.018;6.306;2023-04-30T12:04:46;5.40;;;3.15;;
18899;SDS011;9582;52.018;6.306;2023-04-30T12:07:14;3.17;;;2.70;;
18899;SDS011;9582;52.018;6.306;2023-04-30T12:09:53;3.20;;;2.90;;
18899;SDS011;9582;52.018;6.306;2023-04-30T12:12:26;4.03;;;2.75;;
18899;SDS011;9582;52.018;6.306;2023-04-30T12:14:53;4.68;;;2.45;;
18899;SDS011;9582;52.018;6.306;2023-04-30T12:17:29;2.85;;;2.30;;
18899;SDS011;9582;52.018;6.306;2023-04-30T12:19:56;4.07;;;2.63;;
18899;SDS011;9582;52.018;6.306;2023-04-30T12:22:24;3.08;;;2.40;;
18899;SDS011;9582;52.018;6.306;2023-04-30T12:24:51;4.00;;;2.60;;
18899;SDS011;9582;52.018;6.306;2023-04-30T12:27:18;3.75;;;2.38;;
18899;SDS011;9582;52.018;6.306;2023-04-30T12:29:44;5.32;;;2.50;;
18899;SDS011;9582;52.018;6.306;2023-04-30T12:32:12;4.32;;;2.65;;
18899;SDS011;9582;52.018;6.306;2023-04-30T12:34:40;4.47;;;2.90;;
18899;SDS011;9582;52.018;6.306;2023-04-30T12:37:07;2.95;;;2.58;;
18899;SDS011;9582;52.018;6.306;2023-04-30T12:39:35;4.80;;;3.00;;
18899;SDS011;9582;52.018;6.306;2023-04-30T12:42:02;5.97;;;2.70;;
18899;SDS011;9582;52.018;6.306;2023-04-30T12:44:29;2.70;;;2.40;;
18899;SDS011;9582;52.018;6.306;2023-04-30T12:46:55;2.65;;;2.20;;
18899;SDS011;9582;52.018;6.306;2023-04-30T12:49:25;3.50;;;2.35;;
18899;SDS011;9582;52.018;6.306;2023-04-30T12:52:00;5.82;;;2.35;;
18899;SDS011;9582;52.018;6.306;2023-04-30T12:54:28;3.05;;;2.13;;
18899;SDS011;9582;52.018;6.306;2023-04-30T12:56:58;2.92;;;2.00;;
18899;SDS011;9582;52.018;6.306;2023-04-30T12:59:26;3.90;;;1.80;;
18899;SDS011;9582;52.018;6.306;2023-04-30T13:01:53;3.22;;;2.08;;
18899;SDS011;9582;52.018;6.306;2023-04-30T13:04:19;2.45;;;1.75;;
18899;SDS011;9582;52.018;6.306;2023-04-30T13:06:46;2.78;;;1.67;;
18899;SDS011;9582;52.018;6.306;2023-04-30T13:09:13;3.67;;;1.98;;
18899;SDS011;9582;52.018;6.306;2023-04-30T13:11:40;3.50;;;1.85;;
18899;SDS011;9582;52.018;6.306;2023-04-30T13:14:08;3.50;;;2.40;;
18899;SDS011;9582;52.018;6.306;2023-04-30T13:16:35;2.42;;;2.05;;
18899;SDS011;9582;52.018;6.306;2023-04-30T13:19:02;3.88;;;2.28;;
18899;SDS011;9582;52.018;6.306;2023-04-30T13:21:29;3.42;;;2.30;;
18899;SDS011;9582;52.018;6.306;2023-04-30T13:23:56;3.20;;;2.17;;
18899;SDS011;9582;52.018;6.306;2023-04-30T13:26:23;3.47;;;2.20;;
18899;SDS011;9582;52.018;6.306;2023-04-30T13:28:50;4.45;;;2.45;;
18899;SDS011;9582;52.018;6.306;2023-04-30T13:31:18;2.58;;;2.38;;
18899;SDS011;9582;52.018;6.306;2023-04-30T13:33:46;2.63;;;2.17;;
18899;SDS011;9582;52.018;6.306;2023-04-30T13:36:13;3.45;;;2.33;;
18899;SDS011;9582;52.018;6.306;2023-04-30T13:38:39;2.58;;;2.25;;
18899;SDS011;9582;52.018;6.306;2023-04-30T13:41:06;2.63;;;2.00;;
18899;SDS011;9582;52.018;6.306;2023-04-30T13:43:33;3.65;;;2.50;;
18899;SDS011;9582;52.018;6.306;2023-04-30T13:45:59;2.90;;;1.80;;
18899;SDS011;9582;52.018;6.306;2023-04-30T13:48:27;1.80;;;1.40;;
18899;SDS011;9582;52.018;6.306;2023-04-30T13:50:54;2.38;;;1.17;;
18899;SDS011;9582;52.018;6.306;2023-04-30T13:53:20;4.38;;;1.60;;
18899;SDS011;9582;52.018;6.306;2023-04-30T13:55:47;2.28;;;1.40;;
18899;SDS011;9582;52.018;6.306;2023-04-30T13:58:13;3.20;;;1.70;;
18899;SDS011;9582;52.018;6.306;2023-04-30T14:00:40;2.72;;;1.90;;
18899;SDS011;9582;52.018;6.306;2023-04-30T14:03:06;1.45;;;1.30;;
18899;SDS011;9582;52.018;6.306;2023-04-30T14:05:34;4.03;;;1.95;;
18899;SDS011;9582;52.018;6.306;2023-04-30T14:08:01;1.95;;;1.38;;
18899;SDS011;9582;52.018;6.306;2023-04-30T14:10:28;2.40;;;1.42;;
18899;SDS011;9582;52.018;6.306;2023-04-30T14:12:55;2.42;;;1.90;;
18899;SDS011;9582;52.018;6.306;2023-04-30T14:15:21;2.50;;;1.33;;
18899;SDS011;9582;52.018;6.306;2023-04-30T14:17:48;1.50;;;1.30;;
18899;SDS011;9582;52.018;6.306;2023-04-30T14:20:15;1.85;;;1.15;;
18899;SDS011;9582;52.018;6.306;2023-04-30T14:22:43;1.70;;;1.13;;
18899;SDS011;9582;52.018;6.306;2023-04-30T14:25:09;2.75;;;1.40;;
18899;SDS011;9582;52.018;6.306;2023-04-30T14:27:36;1.40;;;1.30;;
18899;SDS011;9582;52.018;6.306;2023-04-30T14:30:03;3.45;;;1.33;;
18899;SDS011;9582;52.018;6.306;2023-04-30T14:32:31;2.90;;;1.95;;
18899;SDS011;9582;52.018;6.306;2023-04-30T14:34:58;1.77;;;1.52;;
18899;SDS011;9582;52.018;6.306;2023-04-30T14:37:24;2.13;;;1.25;;
18899;SDS011;9582;52.018;6.306;2023-04-30T14:39:53;2.75;;;1.50;;
18899;SDS011;9582;52.018;6.306;2023-04-30T14:42:19;2.55;;;1.50;;
18899;SDS011;9582;52.018;6.306;2023-04-30T14:44:46;3.03;;;1.60;;
18899;SDS011;9582;52.018;6.306;2023-04-30T14:47:12;2.90;;;1.67;;
18899;SDS011;9582;52.018;6.306;2023-04-30T14:49:39;1.20;;;1.10;;
18899;SDS011;9582;52.018;6.306;2023-04-30T14:52:05;2.28;;;1.30;;
18899;SDS011;9582;52.018;6.306;2023-04-30T14:54:32;2.38;;;1.40;;
18899;SDS011;9582;52.018;6.306;2023-04-30T14:57:00;2.78;;;1.30;;
18899;SDS011;9582;52.018;6.306;2023-04-30T14:59:27;2.30;;;1.40;;
18899;SDS011;9582;52.018;6.306;2023-04-30T15:01:53;2.03;;;1.42;;